sensor_id;sensor_type;location;lat;lon;timestamp;pressure;altitude;pressure_sealevel;temperature;humidity
73106;BME280;61559;50.476;15.588;2023-09-07T00:00:16;98438.77;;;11.68;85.12
73106;BME280;61559;50.476;15.588;2023-09-07T00:03:07;98437.08;;;11.65;84.99
73106;BME280;61559;50.476;15.588;2023-09-07T00:05:38;98438.83;;;11.64;84.92
73106;BME280;61559;50.476;15.588;2023-09-07T00:08:10;98440.38;;;11.61;85.16
73106;BME280;61559;50.476;15.588;2023-09-07T00:10:41;98440.59;;;11.58;85.27
73106;BME280;61559;50.476;15.588;2023-09-07T00:13:12;98442.01;;;11.57;85.99
73106;BME280;61559;50.476;15.588;2023-09-07T00:15:43;98441.95;;;11.54;85.52
73106;BME280;61559;50.476;15.588;2023-09-07T00:18:15;98443.38;;;11.53;85.54
73106;BME280;61559;50.476;15.588;2023-09-07T00:20:49;98441.08;;;11.52;85.63
73106;BME280;61559;50.476;15.588;2023-09-07T00:23:20;98438.77;;;11.48;85.63
73106;BME280;61559;50.476;15.588;2023-09-07T00:25:51;98440.87;;;11.46;85.66
73106;BME280;61559;50.476;15.588;2023-09-07T00:28:23;98440.60;;;11.44;85.63
73106;BME280;61559;50.476;15.588;2023-09-07T00:30:54;98439.74;;;11.43;86.00
73106;BME280;61559;50.476;15.588;2023-09-07T00:33:25;98439.52;;;11.41;86.05
73106;BME280;61559;50.476;15.588;2023-09-07T00:35:57;98437.80;;;11.40;86.02
73106;BME280;61559;50.476;15.588;2023-09-07T00:38:28;98436.45;;;11.38;85.89
73106;BME280;61559;50.476;15.588;2023-09-07T00:40:59;98436.48;;;11.36;85.82
73106;BME280;61559;50.476;15.588;2023-09-07T00:43:31;98437.13;;;11.34;85.95
73106;BME280;61559;50.476;15.588;2023-09-07T00:46:02;98436.98;;;11.31;85.72
73106;BME280;61559;50.476;15.588;2023-09-07T00:48:34;98435.70;;;11.28;85.58
73106;BME280;61559;50.476;15.588;2023-09-07T00:51:05;98436.67;;;11.27;85.92
73106;BME280;61559;50.476;15.588;2023-09-07T00:53:37;98431.66;;;11.23;85.69
73106;BME280;61559;50.476;15.588;2023-09-07T00:56:09;98435.90;;;11.19;85.63
73106;BME280;61559;50.476;15.588;2023-09-07T00:58:41;98432.90;;;11.17;85.96
73106;BME280;61559;50.476;15.588;2023-09-07T01:01:12;98435.52;;;11.14;86.03
73106;BME280;61559;50.476;15.588;2023-09-07T01:03:43;98430.54;;;11.13;86.20
73106;BME280;61559;50.476;15.588;2023-09-07T01:06:17;98431.34;;;11.12;86.28
73106;BME280;61559;50.476;15.588;2023-09-07T01:08:51;98431.51;;;11.08;86.16
73106;BME280;61559;50.476;15.588;2023-09-07T01:11:24;98426.86;;;11.06;86.06
73106;BME280;61559;50.476;15.588;2023-09-07T01:13:56;98430.88;;;11.04;86.16
73106;BME280;61559;50.476;15.588;2023-09-07T01:16:28;98427.68;;;11.01;85.95
73106;BME280;61559;50.476;15.588;2023-09-07T01:19:00;98429.59;;;10.98;85.81
73106;BME280;61559;50.476;15.588;2023-09-07T01:21:35;98425.61;;;10.95;85.74
73106;BME280;61559;50.476;15.588;2023-09-07T01:24:09;98428.59;;;10.93;85.88
73106;BME280;61559;50.476;15.588;2023-09-07T01:26:40;98427.41;;;10.90;86.09
73106;BME280;61559;50.476;15.588;2023-09-07T01:29:12;98424.08;;;10.89;86.07
73106;BME280;61559;50.476;15.588;2023-09-07T01:31:43;98423.08;;;10.87;86.22
73106;BME280;61559;50.476;15.588;2023-09-07T01:34:15;98422.81;;;10.84;86.38
73106;BME280;61559;50.476;15.588;2023-09-07T01:36:46;98423.83;;;10.82;86.61
73106;BME280;61559;50.476;15.588;2023-09-07T01:39:17;98423.15;;;10.80;86.43
73106;BME280;61559;50.476;15.588;2023-09-07T01:41:49;98424.22;;;10.78;86.17
73106;BME280;61559;50.476;15.588;2023-09-07T01:44:20;98421.11;;;10.76;86.38
73106;BME280;61559;50.476;15.588;2023-09-07T01:46:51;98423.05;;;10.74;86.40
73106;BME280;61559;50.476;15.588;2023-09-07T01:49:22;98428.86;;;10.71;86.20
73106;BME280;61559;50.476;15.588;2023-09-07T01:51:54;98425.97;;;10.68;86.26
73106;BME280;61559;50.476;15.588;2023-09-07T01:54:25;98426.88;;;10.66;86.50
73106;BME280;61559;50.476;15.588;2023-09-07T01:56:56;98424.77;;;10.64;86.61
73106;BME280;61559;50.476;15.588;2023-09-07T01:59:27;98427.34;;;10.61;86.70
73106;BME280;61559;50.476;15.588;2023-09-07T02:01:58;98429.23;;;10.59;86.48
73106;BME280;61559;50.476;15.588;2023-09-07T02:04:29;98431.16;;;10.57;86.78
73106;BME280;61559;50.476;15.588;2023-09-07T02:07:00;98427.43;;;10.55;86.39
73106;BME280;61559;50.476;15.588;2023-09-07T02:09:32;98427.63;;;10.53;86.76
73106;BME280;61559;50.476;15.588;2023-09-07T02:12:04;98422.64;;;10.52;87.00
73106;BME280;61559;50.476;15.588;2023-09-07T02:14:35;98421.73;;;10.50;87.23
73106;BME280;61559;50.476;15.588;2023-09-07T02:17:06;98422.27;;;10.49;87.75
73106;BME280;61559;50.476;15.588;2023-09-07T02:19:37;98420.38;;;10.48;87.42
73106;BME280;61559;50.476;15.588;2023-09-07T02:22:09;98420.10;;;10.46;87.36
73106;BME280;61559;50.476;15.588;2023-09-07T02:24:40;98421.42;;;10.43;86.83
73106;BME280;61559;50.476;15.588;2023-09-07T02:27:11;98418.81;;;10.43;87.36
73106;BME280;61559;50.476;15.588;2023-09-07T02:29:43;98420.13;;;10.41;87.20
73106;BME280;61559;50.476;15.588;2023-09-07T02:32:14;98422.06;;;10.38;86.61
73106;BME280;61559;50.476;15.588;2023-09-07T02:34:46;98421.34;;;10.35;86.44
73106;BME280;61559;50.476;15.588;2023-09-07T02:37:18;98422.83;;;10.32;86.57
73106;BME280;61559;50.476;15.588;2023-09-07T02:39:49;98417.88;;;10.29;86.70
73106;BME280;61559;50.476;15.588;2023-09-07T02:42:21;98416.39;;;10.26;86.32
73106;BME280;61559;50.476;15.588;2023-09-07T02:44:54;98419.91;;;10.23;86.26
73106;BME280;61559;50.476;15.588;2023-09-07T02:47:25;98425.16;;;10.21;86.47
73106;BME280;61559;50.476;15.588;2023-09-07T02:49:58;98422.70;;;10.19;86.67
73106;BME280;61559;50.476;15.588;2023-09-07T02:52:30;98418.85;;;10.17;86.46
73106;BME280;61559;50.476;15.588;2023-09-07T02:55:01;98419.61;;;10.14;86.28
73106;BME280;61559;50.476;15.588;2023-09-07T02:57:33;98419.80;;;10.11;86.21
73106;BME280;61559;50.476;15.588;2023-09-07T03:00:07;98419.67;;;10.09;86.35
73106;BME280;61559;50.476;15.588;2023-09-07T03:02:40;98419.10;;;10.07;86.46
73106;BME280;61559;50.476;15.588;2023-09-07T03:05:11;98421.29;;;10.05;86.91
73106;BME280;61559;50.476;15.588;2023-09-07T03:07:44;98423.93;;;10.04;87.02
73106;BME280;61559;50.476;15.588;2023-09-07T03:10:16;98422.52;;;10.02;87.14
73106;BME280;61559;50.476;15.588;2023-09-07T03:12:47;98418.05;;;10.01;87.00
73106;BME280;61559;50.476;15.588;2023-09-07T03:15:18;98421.59;;;9.98;86.98
73106;BME280;61559;50.476;15.588;2023-09-07T03:17:49;98422.36;;;9.95;86.54
73106;BME280;61559;50.476;15.588;2023-09-07T03:20:20;98423.39;;;9.91;86.33
73106;BME280;61559;50.476;15.588;2023-09-07T03:22:52;98417.92;;;9.88;86.30
73106;BME280;61559;50.476;15.588;2023-09-07T03:25:23;98416.30;;;9.87;86.54
73106;BME280;61559;50.476;15.588;2023-09-07T03:27:54;98413.75;;;9.84;86.49
73106;BME280;61559;50.476;15.588;2023-09-07T03:30:25;98416.29;;;9.84;86.63
73106;BME280;61559;50.476;15.588;2023-09-07T03:32:56;98413.11;;;9.82;86.59
73106;BME280;61559;50.476;15.588;2023-09-07T03:35:27;98412.31;;;9.81;86.78
73106;BME280;61559;50.476;15.588;2023-09-07T03:37:59;98411.70;;;9.80;86.87
73106;BME280;61559;50.476;15.588;2023-09-07T03:40:30;98411.53;;;9.78;87.02
73106;BME280;61559;50.476;15.588;2023-09-07T03:43:01;98412.36;;;9.77;87.29
73106;BME280;61559;50.476;15.588;2023-09-07T03:45:33;98412.42;;;9.76;87.34
73106;BME280;61559;50.476;15.588;2023-09-07T03:48:05;98417.04;;;9.74;87.10
73106;BME280;61559;50.476;15.588;2023-09-07T03:50:37;98415.20;;;9.72;86.98
73106;BME280;61559;50.476;15.588;2023-09-07T03:53:08;98416.34;;;9.71;87.03
73106;BME280;61559;50.476;15.588;2023-09-07T03:55:43;98416.36;;;9.70;87.11
73106;BME280;61559;50.476;15.588;2023-09-07T03:58:14;98420.00;;;9.67;86.95
73106;BME280;61559;50.476;15.588;2023-09-07T04:00:45;98419.58;;;9.65;86.72
73106;BME280;61559;50.476;15.588;2023-09-07T04:03:17;98422.27;;;9.62;86.75
73106;BME280;61559;50.476;15.588;2023-09-07T04:05:49;98423.52;;;9.61;86.82
73106;BME280;61559;50.476;15.588;2023-09-07T04:08:21;98421.58;;;9.61;87.17
73106;BME280;61559;50.476;15.588;2023-09-07T04:10:52;98422.11;;;9.60;87.28
73106;BME280;61559;50.476;15.588;2023-09-07T04:13:23;98424.39;;;9.57;87.26
73106;BME280;61559;50.476;15.588;2023-09-07T04:15:54;98425.19;;;9.56;87.49
73106;BME280;61559;50.476;15.588;2023-09-07T04:18:26;98426.51;;;9.54;87.45
73106;BME280;61559;50.476;15.588;2023-09-07T04:21:07;98427.02;;;9.51;87.05
73106;BME280;61559;50.476;15.588;2023-09-07T04:23:38;98427.14;;;9.46;87.06
73106;BME280;61559;50.476;15.588;2023-09-07T04:26:10;98427.21;;;9.44;87.59
73106;BME280;61559;50.476;15.588;2023-09-07T04:28:42;98428.71;;;9.43;87.76
73106;BME280;61559;50.476;15.588;2023-09-07T04:31:13;98429.38;;;9.42;87.67
73106;BME280;61559;50.476;15.588;2023-09-07T04:33:44;98430.97;;;9.38;87.13
73106;BME280;61559;50.476;15.588;2023-09-07T04:36:15;98434.30;;;9.35;87.56
73106;BME280;61559;50.476;15.588;2023-09-07T04:38:46;98433.52;;;9.35;88.25
73106;BME280;61559;50.476;15.588;2023-09-07T04:41:18;98433.38;;;9.35;88.17
73106;BME280;61559;50.476;15.588;2023-09-07T04:43:49;98432.99;;;9.37;88.66
73106;BME280;61559;50.476;15.588;2023-09-07T04:46:22;98434.58;;;9.38;88.02
73106;BME280;61559;50.476;15.588;2023-09-07T04:48:53;98437.60;;;9.38;87.69
73106;BME280;61559;50.476;15.588;2023-09-07T04:51:26;98438.73;;;9.39;87.68
73106;BME280;61559;50.476;15.588;2023-09-07T04:53:57;98441.77;;;9.39;87.59
73106;BME280;61559;50.476;15.588;2023-09-07T04:56:29;98433.33;;;9.39;87.78
73106;BME280;61559;50.476;15.588;2023-09-07T04:59:00;98434.24;;;9.40;87.62
73106;BME280;61559;50.476;15.588;2023-09-07T05:01:31;98435.93;;;9.41;87.45
73106;BME280;61559;50.476;15.588;2023-09-07T05:04:03;98434.31;;;9.43;87.68
73106;BME280;61559;50.476;15.588;2023-09-07T05:06:34;98432.70;;;9.45;87.82
73106;BME280;61559;50.476;15.588;2023-09-07T05:09:07;98432.83;;;9.48;87.90
73106;BME280;61559;50.476;15.588;2023-09-07T05:11:38;98434.60;;;9.49;87.82
73106;BME280;61559;50.476;15.588;2023-09-07T05:14:09;98437.04;;;9.52;87.83
73106;BME280;61559;50.476;15.588;2023-09-07T05:16:43;98437.45;;;9.54;88.06
73106;BME280;61559;50.476;15.588;2023-09-07T05:19:16;98439.52;;;9.57;88.07
73106;BME280;61559;50.476;15.588;2023-09-07T05:21:47;98438.35;;;9.60;88.16
73106;BME280;61559;50.476;15.588;2023-09-07T05:24:18;98436.20;;;9.63;88.34
73106;BME280;61559;50.476;15.588;2023-09-07T05:26:51;98436.98;;;9.67;88.44
73106;BME280;61559;50.476;15.588;2023-09-07T05:29:21;98441.03;;;9.72;88.35
73106;BME280;61559;50.476;15.588;2023-09-07T05:31:53;98442.00;;;9.77;88.33
73106;BME280;61559;50.476;15.588;2023-09-07T05:34:24;98445.73;;;9.83;88.35
73106;BME280;61559;50.476;15.588;2023-09-07T05:36:55;98444.52;;;9.89;88.46
73106;BME280;61559;50.476;15.588;2023-09-07T05:39:26;98447.68;;;9.95;88.39
73106;BME280;61559;50.476;15.588;2023-09-07T05:41:57;98446.86;;;10.02;88.67
73106;BME280;61559;50.476;15.588;2023-09-07T05:44:28;98446.34;;;10.10;88.83
73106;BME280;61559;50.476;15.588;2023-09-07T05:46:57;98443.91;;;10.18;88.98
73106;BME280;61559;50.476;15.588;2023-09-07T05:49:29;98444.34;;;10.26;89.24
73106;BME280;61559;50.476;15.588;2023-09-07T05:52:00;98443.64;;;10.35;89.21
73106;BME280;61559;50.476;15.588;2023-09-07T05:54:32;98444.34;;;10.44;88.98
73106;BME280;61559;50.476;15.588;2023-09-07T05:57:03;98438.73;;;10.54;89.06
73106;BME280;61559;50.476;15.588;2023-09-07T05:59:35;98442.48;;;10.65;89.17
73106;BME280;61559;50.476;15.588;2023-09-07T06:02:06;98445.40;;;10.75;89.33
73106;BME280;61559;50.476;15.588;2023-09-07T06:04:37;98444.36;;;10.84;89.01
73106;BME280;61559;50.476;15.588;2023-09-07T06:07:09;98444.04;;;10.94;88.93
73106;BME280;61559;50.476;15.588;2023-09-07T06:09:40;98441.89;;;11.04;89.03
73106;BME280;61559;50.476;15.588;2023-09-07T06:12:11;98442.88;;;11.16;89.12
73106;BME280;61559;50.476;15.588;2023-09-07T06:14:42;98446.20;;;11.28;89.22
73106;BME280;61559;50.476;15.588;2023-09-07T06:17:14;98451.16;;;11.40;89.25
73106;BME280;61559;50.476;15.588;2023-09-07T06:19:45;98454.38;;;11.52;89.10
73106;BME280;61559;50.476;15.588;2023-09-07T06:22:17;98451.64;;;11.65;89.15
73106;BME280;61559;50.476;15.588;2023-09-07T06:24:48;98450.75;;;11.77;89.18
73106;BME280;61559;50.476;15.588;2023-09-07T06:27:20;98451.61;;;11.91;89.25
73106;BME280;61559;50.476;15.588;2023-09-07T06:29:51;98454.00;;;12.04;89.23
73106;BME280;61559;50.476;15.588;2023-09-07T06:32:22;98452.50;;;12.17;89.34
73106;BME280;61559;50.476;15.588;2023-09-07T06:34:54;98453.39;;;12.30;89.35
73106;BME280;61559;50.476;15.588;2023-09-07T06:37:26;98452.11;;;12.45;89.20
73106;BME280;61559;50.476;15.588;2023-09-07T06:39:58;98452.23;;;12.60;89.26
73106;BME280;61559;50.476;15.588;2023-09-07T06:42:31;98451.57;;;12.75;89.22
73106;BME280;61559;50.476;15.588;2023-09-07T06:45:02;98449.44;;;12.89;89.23
73106;BME280;61559;50.476;15.588;2023-09-07T06:47:34;98446.56;;;13.04;89.36
73106;BME280;61559;50.476;15.588;2023-09-07T06:50:06;98447.25;;;13.20;89.52
73106;BME280;61559;50.476;15.588;2023-09-07T06:52:37;98447.46;;;13.35;89.50
73106;BME280;61559;50.476;15.588;2023-09-07T06:55:08;98445.37;;;13.51;89.44
73106;BME280;61559;50.476;15.588;2023-09-07T06:57:40;98446.31;;;13.67;89.34
73106;BME280;61559;50.476;15.588;2023-09-07T07:00:13;98443.80;;;13.83;89.18
73106;BME280;61559;50.476;15.588;2023-09-07T07:02:44;98450.13;;;13.99;89.17
73106;BME280;61559;50.476;15.588;2023-09-07T07:05:16;98451.48;;;14.16;89.14
73106;BME280;61559;50.476;15.588;2023-09-07T07:07:47;98445.65;;;14.32;88.96
73106;BME280;61559;50.476;15.588;2023-09-07T07:10:18;98444.45;;;14.48;89.20
73106;BME280;61559;50.476;15.588;2023-09-07T07:12:49;98445.90;;;14.66;89.40
73106;BME280;61559;50.476;15.588;2023-09-07T07:15:20;98446.64;;;14.83;89.31
73106;BME280;61559;50.476;15.588;2023-09-07T07:17:51;98447.36;;;15.03;89.19
73106;BME280;61559;50.476;15.588;2023-09-07T07:20:23;98449.80;;;15.34;88.32
73106;BME280;61559;50.476;15.588;2023-09-07T07:22:54;98446.90;;;15.70;87.10
73106;BME280;61559;50.476;15.588;2023-09-07T07:25:25;98449.66;;;16.08;83.74
73106;BME280;61559;50.476;15.588;2023-09-07T07:27:56;98448.11;;;16.50;81.80
73106;BME280;61559;50.476;15.588;2023-09-07T07:30:29;98449.79;;;16.87;79.66
73106;BME280;61559;50.476;15.588;2023-09-07T07:33:00;98449.05;;;17.21;77.77
73106;BME280;61559;50.476;15.588;2023-09-07T07:35:33;98445.50;;;17.53;75.16
73106;BME280;61559;50.476;15.588;2023-09-07T07:38:06;98446.38;;;17.82;73.38
73106;BME280;61559;50.476;15.588;2023-09-07T07:40:37;98451.17;;;18.08;73.70
73106;BME280;61559;50.476;15.588;2023-09-07T07:43:08;98449.26;;;18.29;72.46
73106;BME280;61559;50.476;15.588;2023-09-07T07:45:40;98453.91;;;18.48;74.01
73106;BME280;61559;50.476;15.588;2023-09-07T07:48:11;98452.11;;;18.64;72.60
73106;BME280;61559;50.476;15.588;2023-09-07T07:50:42;98450.84;;;18.79;72.00
73106;BME280;61559;50.476;15.588;2023-09-07T07:53:13;98451.13;;;18.91;72.49
73106;BME280;61559;50.476;15.588;2023-09-07T07:55:45;98446.34;;;19.00;71.94
73106;BME280;61559;50.476;15.588;2023-09-07T07:58:18;98449.21;;;19.13;70.42
73106;BME280;61559;50.476;15.588;2023-09-07T08:00:49;98451.55;;;19.28;68.88
73106;BME280;61559;50.476;15.588;2023-09-07T08:03:20;98453.20;;;19.41;67.31
73106;BME280;61559;50.476;15.588;2023-09-07T08:05:51;98451.00;;;19.53;67.54
73106;BME280;61559;50.476;15.588;2023-09-07T08:08:22;98455.27;;;19.63;66.73
73106;BME280;61559;50.476;15.588;2023-09-07T08:10:54;98453.24;;;19.74;67.56
73106;BME280;61559;50.476;15.588;2023-09-07T08:13:27;98453.66;;;19.84;67.37
73106;BME280;61559;50.476;15.588;2023-09-07T08:15:58;98452.11;;;19.91;65.86
73106;BME280;61559;50.476;15.588;2023-09-07T08:18:30;98454.39;;;19.99;64.99
73106;BME280;61559;50.476;15.588;2023-09-07T08:21:02;98452.91;;;20.08;64.72
73106;BME280;61559;50.476;15.588;2023-09-07T08:23:33;98453.15;;;20.17;64.42
73106;BME280;61559;50.476;15.588;2023-09-07T08:26:04;98452.55;;;20.28;65.32
73106;BME280;61559;50.476;15.588;2023-09-07T08:28:36;98450.02;;;20.40;64.06
73106;BME280;61559;50.476;15.588;2023-09-07T08:31:07;98452.19;;;20.49;64.27
73106;BME280;61559;50.476;15.588;2023-09-07T08:33:42;98448.63;;;20.59;62.44
73106;BME280;61559;50.476;15.588;2023-09-07T08:36:13;98448.50;;;20.69;62.70
73106;BME280;61559;50.476;15.588;2023-09-07T08:38:46;98447.92;;;20.81;63.06
73106;BME280;61559;50.476;15.588;2023-09-07T08:41:18;98448.41;;;20.89;60.55
73106;BME280;61559;50.476;15.588;2023-09-07T08:43:54;98445.31;;;20.96;60.43
73106;BME280;61559;50.476;15.588;2023-09-07T08:46:27;98446.16;;;21.03;60.88
73106;BME280;61559;50.476;15.588;2023-09-07T08:49:01;98448.06;;;21.10;59.54
73106;BME280;61559;50.476;15.588;2023-09-07T08:51:33;98446.69;;;21.18;58.04
73106;BME280;61559;50.476;15.588;2023-09-07T08:54:08;98442.58;;;21.27;57.79
73106;BME280;61559;50.476;15.588;2023-09-07T08:56:40;98439.91;;;21.35;58.41
73106;BME280;61559;50.476;15.588;2023-09-07T08:59:11;98441.38;;;21.43;58.31
73106;BME280;61559;50.476;15.588;2023-09-07T09:01:42;98444.27;;;21.53;56.70
73106;BME280;61559;50.476;15.588;2023-09-07T09:04:13;98445.23;;;21.63;54.59
73106;BME280;61559;50.476;15.588;2023-09-07T09:06:45;98445.27;;;21.74;55.85
73106;BME280;61559;50.476;15.588;2023-09-07T09:09:24;98446.10;;;21.81;53.32
73106;BME280;61559;50.476;15.588;2023-09-07T09:11:57;98448.23;;;21.91;54.28
73106;BME280;61559;50.476;15.588;2023-09-07T09:14:36;98448.32;;;21.98;54.72
73106;BME280;61559;50.476;15.588;2023-09-07T09:17:12;98443.31;;;22.05;54.77
73106;BME280;61559;50.476;15.588;2023-09-07T09:19:43;98444.80;;;22.09;54.83
73106;BME280;61559;50.476;15.588;2023-09-07T09:22:14;98443.39;;;22.11;54.58
73106;BME280;61559;50.476;15.588;2023-09-07T09:24:45;98444.70;;;22.14;54.08
73106;BME280;61559;50.476;15.588;2023-09-07T09:27:18;98444.80;;;22.17;52.65
73106;BME280;61559;50.476;15.588;2023-09-07T09:29:50;98444.02;;;22.22;51.49
73106;BME280;61559;50.476;15.588;2023-09-07T09:32:23;98445.00;;;22.29;52.21
73106;BME280;61559;50.476;15.588;2023-09-07T09:34:55;98443.04;;;22.36;51.88
73106;BME280;61559;50.476;15.588;2023-09-07T09:37:27;98441.52;;;22.41;51.70
73106;BME280;61559;50.476;15.588;2023-09-07T09:40:00;98439.12;;;22.49;51.30
73106;BME280;61559;50.476;15.588;2023-09-07T09:42:33;98434.89;;;22.57;50.54
73106;BME280;61559;50.476;15.588;2023-09-07T09:45:05;98434.35;;;22.64;51.89
73106;BME280;61559;50.476;15.588;2023-09-07T09:47:39;98432.14;;;22.70;50.59
73106;BME280;61559;50.476;15.588;2023-09-07T09:50:12;98432.18;;;22.75;50.55
73106;BME280;61559;50.476;15.588;2023-09-07T09:52:44;98430.06;;;22.80;50.08
73106;BME280;61559;50.476;15.588;2023-09-07T09:55:17;98425.96;;;22.82;51.06
73106;BME280;61559;50.476;15.588;2023-09-07T09:57:49;98423.44;;;22.85;51.37
73106;BME280;61559;50.476;15.588;2023-09-07T10:00:20;98424.97;;;22.89;51.78
73106;BME280;61559;50.476;15.588;2023-09-07T10:03:04;98425.15;;;22.94;50.48
73106;BME280;61559;50.476;15.588;2023-09-07T10:05:36;98419.86;;;23.02;51.21
73106;BME280;61559;50.476;15.588;2023-09-07T10:08:11;98418.17;;;23.07;51.55
73106;BME280;61559;50.476;15.588;2023-09-07T10:10:46;98421.00;;;23.14;51.43
73106;BME280;61559;50.476;15.588;2023-09-07T10:13:27;98415.78;;;23.20;50.75
73106;BME280;61559;50.476;15.588;2023-09-07T10:16:03;98417.09;;;23.27;50.84
73106;BME280;61559;50.476;15.588;2023-09-07T10:18:38;98411.63;;;23.29;51.68
73106;BME280;61559;50.476;15.588;2023-09-07T10:21:10;98413.90;;;23.33;49.09
73106;BME280;61559;50.476;15.588;2023-09-07T10:23:42;98411.81;;;23.37;49.72
73106;BME280;61559;50.476;15.588;2023-09-07T10:26:15;98414.15;;;23.39;49.93
73106;BME280;61559;50.476;15.588;2023-09-07T10:28:46;98410.98;;;23.41;50.21
73106;BME280;61559;50.476;15.588;2023-09-07T10:31:25;98406.55;;;23.40;49.73
73106;BME280;61559;50.476;15.588;2023-09-07T10:34:16;98409.11;;;23.40;49.55
73106;BME280;61559;50.476;15.588;2023-09-07T10:36:48;98410.09;;;23.43;50.71
73106;BME280;61559;50.476;15.588;2023-09-07T10:39:23;98406.73;;;23.49;46.56
73106;BME280;61559;50.476;15.588;2023-09-07T10:41:54;98410.17;;;23.56;45.57
73106;BME280;61559;50.476;15.588;2023-09-07T10:44:28;98408.02;;;23.61;45.05
73106;BME280;61559;50.476;15.588;2023-09-07T10:46:59;98409.85;;;23.69;46.94
73106;BME280;61559;50.476;15.588;2023-09-07T10:49:30;98407.09;;;23.74;45.31
73106;BME280;61559;50.476;15.588;2023-09-07T10:52:02;98405.90;;;23.78;45.28
73106;BME280;61559;50.476;15.588;2023-09-07T10:54:33;98409.46;;;23.86;45.55
73106;BME280;61559;50.476;15.588;2023-09-07T10:57:10;98407.43;;;23.88;44.54
73106;BME280;61559;50.476;15.588;2023-09-07T10:59:47;98406.09;;;23.91;44.03
73106;BME280;61559;50.476;15.588;2023-09-07T11:02:18;98401.14;;;23.92;44.71
73106;BME280;61559;50.476;15.588;2023-09-07T11:04:49;98402.58;;;23.97;44.93
73106;BME280;61559;50.476;15.588;2023-09-07T11:07:20;98399.73;;;24.00;44.43
73106;BME280;61559;50.476;15.588;2023-09-07T11:09:52;98397.55;;;24.02;44.07
73106;BME280;61559;50.476;15.588;2023-09-07T11:12:24;98398.00;;;24.04;44.88
73106;BME280;61559;50.476;15.588;2023-09-07T11:14:56;98399.52;;;24.07;44.64
73106;BME280;61559;50.476;15.588;2023-09-07T11:17:30;98398.09;;;24.10;44.85
73106;BME280;61559;50.476;15.588;2023-09-07T11:20:05;98400.20;;;24.11;45.01
73106;BME280;61559;50.476;15.588;2023-09-07T11:22:37;98399.45;;;24.13;44.42
73106;BME280;61559;50.476;15.588;2023-09-07T11:25:35;98401.73;;;24.18;45.51
73106;BME280;61559;50.476;15.588;2023-09-07T11:28:08;98396.75;;;24.19;45.10
73106;BME280;61559;50.476;15.588;2023-09-07T11:30:51;98396.16;;;24.19;44.01
73106;BME280;61559;50.476;15.588;2023-09-07T11:33:23;98388.93;;;24.21;45.08
73106;BME280;61559;50.476;15.588;2023-09-07T11:35:54;98389.23;;;24.23;44.21
73106;BME280;61559;50.476;15.588;2023-09-07T11:38:35;98387.75;;;24.26;43.94
73106;BME280;61559;50.476;15.588;2023-09-07T11:41:06;98386.31;;;24.29;44.12
73106;BME280;61559;50.476;15.588;2023-09-07T11:43:37;98385.79;;;24.30;43.86
73106;BME280;61559;50.476;15.588;2023-09-07T11:46:09;98385.56;;;24.35;43.80
73106;BME280;61559;50.476;15.588;2023-09-07T11:48:41;98387.45;;;24.41;44.78
73106;BME280;61559;50.476;15.588;2023-09-07T11:51:12;98384.14;;;24.44;43.32
73106;BME280;61559;50.476;15.588;2023-09-07T11:53:44;98380.08;;;24.48;43.56
73106;BME280;61559;50.476;15.588;2023-09-07T11:56:16;98382.33;;;24.53;44.53
73106;BME280;61559;50.476;15.588;2023-09-07T11:58:47;98384.52;;;24.59;44.30
73106;BME280;61559;50.476;15.588;2023-09-07T12:01:18;98384.73;;;24.63;44.38
73106;BME280;61559;50.476;15.588;2023-09-07T12:03:49;98381.05;;;24.66;44.38
73106;BME280;61559;50.476;15.588;2023-09-07T12:06:21;98383.15;;;24.70;43.69
73106;BME280;61559;50.476;15.588;2023-09-07T12:09:03;98381.57;;;24.72;42.52
73106;BME280;61559;50.476;15.588;2023-09-07T12:11:36;98379.23;;;24.74;44.59
73106;BME280;61559;50.476;15.588;2023-09-07T12:14:08;98382.84;;;24.76;43.37
73106;BME280;61559;50.476;15.588;2023-09-07T12:16:39;98379.38;;;24.78;42.50
73106;BME280;61559;50.476;15.588;2023-09-07T12:19:11;98382.61;;;24.79;41.57
73106;BME280;61559;50.476;15.588;2023-09-07T12:21:42;98385.10;;;24.80;41.55
73106;BME280;61559;50.476;15.588;2023-09-07T12:24:13;98381.63;;;24.82;40.27
73106;BME280;61559;50.476;15.588;2023-09-07T12:26:44;98380.36;;;24.84;41.07
73106;BME280;61559;50.476;15.588;2023-09-07T12:29:16;98375.23;;;24.87;40.82
73106;BME280;61559;50.476;15.588;2023-09-07T12:31:47;98373.71;;;24.91;41.32
73106;BME280;61559;50.476;15.588;2023-09-07T12:34:18;98372.66;;;24.95;40.94
73106;BME280;61559;50.476;15.588;2023-09-07T12:36:49;98371.25;;;24.98;41.74
73106;BME280;61559;50.476;15.588;2023-09-07T12:39:20;98372.83;;;25.00;41.35
73106;BME280;61559;50.476;15.588;2023-09-07T12:41:51;98373.27;;;25.01;42.03
73106;BME280;61559;50.476;15.588;2023-09-07T12:44:22;98368.83;;;25.03;41.39
73106;BME280;61559;50.476;15.588;2023-09-07T12:46:53;98367.31;;;25.06;41.84
73106;BME280;61559;50.476;15.588;2023-09-07T12:49:25;98364.67;;;25.10;41.33
73106;BME280;61559;50.476;15.588;2023-09-07T12:51:57;98360.42;;;25.13;41.53
73106;BME280;61559;50.476;15.588;2023-09-07T12:54:28;98358.30;;;25.15;41.37
73106;BME280;61559;50.476;15.588;2023-09-07T12:56:59;98354.67;;;25.16;41.64
73106;BME280;61559;50.476;15.588;2023-09-07T12:59:31;98351.27;;;25.20;41.94
73106;BME280;61559;50.476;15.588;2023-09-07T13:02:02;98350.35;;;25.27;40.44
73106;BME280;61559;50.476;15.588;2023-09-07T13:04:33;98346.87;;;25.30;40.52
73106;BME280;61559;50.476;15.588;2023-09-07T13:07:04;98346.56;;;25.32;40.87
73106;BME280;61559;50.476;15.588;2023-09-07T13:09:35;98345.56;;;25.34;40.60
73106;BME280;61559;50.476;15.588;2023-09-07T13:12:08;98344.66;;;25.36;40.52
73106;BME280;61559;50.476;15.588;2023-09-07T13:14:39;98344.89;;;25.36;39.88
73106;BME280;61559;50.476;15.588;2023-09-07T13:17:13;98342.92;;;25.37;40.69